Airfield :
LOGIN :

Register | Disclaimer

   EN    FR    IT 

 










Legend :    VFR   Marginal VFR   IFR   Intensive IFR   Very Intensive IFR
Visi :
Ceiling :
>= 8 km
>= 3000ft
5 to 8 km
1000 to 3000 ft
1500m to 5 km
500 to 1000 ft
800 to 1500m
200 to 500 ft
< 800m
< 200 ft
Symbols :   Thunderstorms  Fog  Heavy snow  Heavy precipitations  Wind > 20 kt
SIGMETs :     Misc.  Thunderstorms  Icing  Turbulence  Mountain Waves  Volcanic Ashes







- Airport Elevation : 461 ft
- IATA code : WIE


ETOU - Wiesbaden Army

CURRENT METAR :
  • 230156Z AUTO 00000KT 9999 CLR 08/06 A3012 RMK AO2 SLP202 T00750056 $

EXPIRED METARs :
  • 230056Z AUTO 35003KT 9999 CLR 08/06 A3013 RMK AO2 SLP206 T00780058 $
  • 222356Z AUTO 26003KT 9999 CLR 08/05 A3013 RMK AO2 SLP206 T00780054 10168 20076 52003 $

TAF TAF ETOU
Valid from the 22 at 19:00 until the 24 at 01:00 UTC


221901Z 2219/2401 36009KT 9999 FEW040 QNH3009INS
BECMG 2220/2221 VRB06KT 9999 SKC QNH3012INS
BECMG 2308/2309 03009KT 9999 FEW060 QNH3003INS TX20/2315Z TN06/2304Z
No reported NOTAMs for that airfield.



MET'MAP, your aeronautical weather chart ! - Copyright ORBIFLY December 2007 - Disclaimer

ORBIFLY MET'MAP TEAM :

Programming & Development : Alexandra Zaïnal
Concept & Development : Baudouin d'Aumeries
Co-Development & Prog : Marc-Olivier Méhu
Technical & hardware support : Manuel Goepfert

Contact : metmap@orbifly.com




SOURCES & CREDITS :

   NOAA